sensor_id;sensor_type;location;lat;lon;timestamp;pressure;altitude;pressure_sealevel;temperature;humidity
21395;BME280;10858;42.714;23.180;2023-01-15T00:01:27;94838.97;;;6.26;70.50
21395;BME280;10858;42.714;23.180;2023-01-15T00:03:56;94832.75;;;6.53;70.02
21395;BME280;10858;42.714;23.180;2023-01-15T00:06:23;94831.50;;;6.46;69.82
21395;BME280;10858;42.714;23.180;2023-01-15T00:08:50;94834.97;;;6.20;70.64
21395;BME280;10858;42.714;23.180;2023-01-15T00:11:18;94833.63;;;6.27;70.83
21395;BME280;10858;42.714;23.180;2023-01-15T00:13:45;94831.28;;;6.23;71.10
21395;BME280;10858;42.714;23.180;2023-01-15T00:16:17;94823.94;;;5.73;72.40
21395;BME280;10858;42.714;23.180;2023-01-15T00:18:50;94826.47;;;5.74;72.75
21395;BME280;10858;42.714;23.180;2023-01-15T00:21:17;94833.13;;;5.66;73.53
21395;BME280;10858;42.714;23.180;2023-01-15T00:23:43;94832.97;;;5.55;74.23
21395;BME280;10858;42.714;23.180;2023-01-15T00:26:29;94834.09;;;5.79;73.82
21395;BME280;10858;42.714;23.180;2023-01-15T00:29:15;94833.53;;;5.88;73.28
21395;BME280;10858;42.714;23.180;2023-01-15T00:31:43;94832.88;;;6.25;71.88
21395;BME280;10858;42.714;23.180;2023-01-15T00:34:10;94835.06;;;6.45;70.66
21395;BME280;10858;42.714;23.180;2023-01-15T00:36:36;94839.28;;;6.48;69.88
21395;BME280;10858;42.714;23.180;2023-01-15T00:39:03;94832.69;;;6.28;70.61
21395;BME280;10858;42.714;23.180;2023-01-15T00:41:30;94831.69;;;6.17;70.92
21395;BME280;10858;42.714;23.180;2023-01-15T00:43:56;94827.56;;;6.13;71.13
21395;BME280;10858;42.714;23.180;2023-01-15T00:46:22;94829.38;;;5.98;71.63
21395;BME280;10858;42.714;23.180;2023-01-15T00:48:48;94829.75;;;5.92;71.75
21395;BME280;10858;42.714;23.180;2023-01-15T00:51:15;94821.06;;;6.04;71.95
21395;BME280;10858;42.714;23.180;2023-01-15T00:53:41;94820.06;;;6.33;70.62
21395;BME280;10858;42.714;23.180;2023-01-15T00:56:07;94815.91;;;6.03;71.81
21395;BME280;10858;42.714;23.180;2023-01-15T00:58:33;94815.81;;;6.04;71.87
21395;BME280;10858;42.714;23.180;2023-01-15T01:00:59;94824.81;;;6.14;71.97
21395;BME280;10858;42.714;23.180;2023-01-15T01:03:26;94828.09;;;6.18;71.25
21395;BME280;10858;42.714;23.180;2023-01-15T01:05:52;94822.66;;;6.21;71.01
21395;BME280;10858;42.714;23.180;2023-01-15T01:08:19;94814.69;;;5.80;72.58
21395;BME280;10858;42.714;23.180;2023-01-15T01:10:45;94804.84;;;5.69;73.64
21395;BME280;10858;42.714;23.180;2023-01-15T01:13:12;94804.84;;;5.83;73.38
21395;BME280;10858;42.714;23.180;2023-01-15T01:15:38;94809.78;;;6.02;72.40
21395;BME280;10858;42.714;23.180;2023-01-15T01:18:05;94811.94;;;6.10;71.78
21395;BME280;10858;42.714;23.180;2023-01-15T01:20:32;94822.03;;;6.03;71.75
21395;BME280;10858;42.714;23.180;2023-01-15T01:22:58;94811.97;;;5.95;72.33
21395;BME280;10858;42.714;23.180;2023-01-15T01:25:24;94810.19;;;5.96;72.11
21395;BME280;10858;42.714;23.180;2023-01-15T01:27:51;94808.91;;;5.89;72.54
21395;BME280;10858;42.714;23.180;2023-01-15T01:30:17;94801.09;;;5.45;74.43
21395;BME280;10858;42.714;23.180;2023-01-15T01:32:44;94801.19;;;5.15;75.69
21395;BME280;10858;42.714;23.180;2023-01-15T01:35:10;94803.72;;;5.17;75.95
21395;BME280;10858;42.714;23.180;2023-01-15T01:37:36;94800.81;;;5.36;75.27
21395;BME280;10858;42.714;23.180;2023-01-15T01:40:04;94803.34;;;5.51;75.45
21395;BME280;10858;42.714;23.180;2023-01-15T01:42:30;94796.47;;;5.77;74.19
21395;BME280;10858;42.714;23.180;2023-01-15T01:45:11;94813.03;;;5.65;74.43
21395;BME280;10858;42.714;23.180;2023-01-15T01:47:43;94812.06;;;5.66;74.76
21395;BME280;10858;42.714;23.180;2023-01-15T01:50:12;94817.72;;;5.88;73.48
21395;BME280;10858;42.714;23.180;2023-01-15T01:53:03;94808.50;;;5.95;73.05
21395;BME280;10858;42.714;23.180;2023-01-15T01:55:31;94802.97;;;5.85;73.31
21395;BME280;10858;42.714;23.180;2023-01-15T01:58:00;94812.06;;;5.80;73.49
21395;BME280;10858;42.714;23.180;2023-01-15T02:00:30;94801.53;;;5.94;73.42
21395;BME280;10858;42.714;23.180;2023-01-15T02:02:57;94811.50;;;6.03;72.71
21395;BME280;10858;42.714;23.180;2023-01-15T02:05:33;94806.25;;;6.03;72.82
21395;BME280;10858;42.714;23.180;2023-01-15T02:08:00;94804.41;;;6.03;72.35
21395;BME280;10858;42.714;23.180;2023-01-15T02:10:27;94811.13;;;6.09;72.52
21395;BME280;10858;42.714;23.180;2023-01-15T02:13:05;94801.16;;;6.00;72.68
21395;BME280;10858;42.714;23.180;2023-01-15T02:15:45;94806.81;;;5.94;72.69
21395;BME280;10858;42.714;23.180;2023-01-15T02:18:28;94799.66;;;5.96;73.08
21395;BME280;10858;42.714;23.180;2023-01-15T02:21:22;94801.75;;;5.91;72.96
21395;BME280;10858;42.714;23.180;2023-01-15T02:24:04;94792.25;;;5.74;73.37
21395;BME280;10858;42.714;23.180;2023-01-15T02:32:34;94794.25;;;5.85;74.12
21395;BME280;10858;42.714;23.180;2023-01-15T02:35:51;94794.00;;;6.02;72.98
21395;BME280;10858;42.714;23.180;2023-01-15T02:38:21;94788.72;;;6.02;72.42
21395;BME280;10858;42.714;23.180;2023-01-15T02:40:51;94793.63;;;5.94;72.25
21395;BME280;10858;42.714;23.180;2023-01-15T02:43:20;94793.00;;;5.76;73.20
21395;BME280;10858;42.714;23.180;2023-01-15T02:45:49;94791.97;;;5.79;73.91
21395;BME280;10858;42.714;23.180;2023-01-15T02:48:19;94794.38;;;5.96;72.73
21395;BME280;10858;42.714;23.180;2023-01-15T02:50:54;94794.59;;;5.93;72.80
21395;BME280;10858;42.714;23.180;2023-01-15T02:53:26;94798.19;;;5.50;74.41
21395;BME280;10858;42.714;23.180;2023-01-15T02:55:56;94793.94;;;5.33;75.36
21395;BME280;10858;42.714;23.180;2023-01-15T02:58:29;94794.81;;;5.34;75.65
21395;BME280;10858;42.714;23.180;2023-01-15T03:01:01;94796.22;;;5.39;75.62
21395;BME280;10858;42.714;23.180;2023-01-15T03:03:58;94797.72;;;5.29;75.66
21395;BME280;10858;42.714;23.180;2023-01-15T03:06:37;94793.88;;;5.21;76.24
21395;BME280;10858;42.714;23.180;2023-01-15T03:09:06;94798.53;;;5.01;77.12
21395;BME280;10858;42.714;23.180;2023-01-15T03:11:43;94803.06;;;5.56;74.68
21395;BME280;10858;42.714;23.180;2023-01-15T03:14:18;94795.75;;;5.18;76.19
21395;BME280;10858;42.714;23.180;2023-01-15T03:16:49;94792.56;;;5.28;76.23
21395;BME280;10858;42.714;23.180;2023-01-15T03:19:30;94791.03;;;5.66;75.26
21395;BME280;10858;42.714;23.180;2023-01-15T03:22:29;94791.97;;;5.79;74.22
21395;BME280;10858;42.714;23.180;2023-01-15T03:25:10;94795.19;;;5.56;74.70
21395;BME280;10858;42.714;23.180;2023-01-15T03:27:38;94792.72;;;5.67;74.82
21395;BME280;10858;42.714;23.180;2023-01-15T03:30:14;94791.69;;;5.83;74.29
21395;BME280;10858;42.714;23.180;2023-01-15T03:32:40;94793.69;;;5.38;75.28
21395;BME280;10858;42.714;23.180;2023-01-15T03:35:38;94787.41;;;5.26;76.47
21395;BME280;10858;42.714;23.180;2023-01-15T03:37:54;94783.16;;;5.24;76.17
21395;BME280;10858;42.714;23.180;2023-01-15T03:40:21;94786.66;;;5.38;76.01
21395;BME280;10858;42.714;23.180;2023-01-15T03:42:53;94783.91;;;5.40;75.62
21395;BME280;10858;42.714;23.180;2023-01-15T03:45:43;94783.00;;;5.27;75.79
21395;BME280;10858;42.714;23.180;2023-01-15T03:51:10;94785.91;;;5.22;76.22
21395;BME280;10858;42.714;23.180;2023-01-15T03:53:48;94784.75;;;5.26;76.37
21395;BME280;10858;42.714;23.180;2023-01-15T03:59:34;94782.97;;;5.55;75.10
21395;BME280;10858;42.714;23.180;2023-01-15T04:02:05;94778.09;;;5.49;75.45
21395;BME280;10858;42.714;23.180;2023-01-15T04:04:33;94773.75;;;5.62;75.30
21395;BME280;10858;42.714;23.180;2023-01-15T04:07:01;94775.34;;;5.64;74.92
21395;BME280;10858;42.714;23.180;2023-01-15T04:09:28;94785.41;;;5.58;75.18
21395;BME280;10858;42.714;23.180;2023-01-15T04:11:58;94773.47;;;5.66;74.60
21395;BME280;10858;42.714;23.180;2023-01-15T04:14:27;94774.97;;;5.70;74.47
21395;BME280;10858;42.714;23.180;2023-01-15T04:16:55;94780.31;;;5.69;74.72
21395;BME280;10858;42.714;23.180;2023-01-15T04:19:21;94777.47;;;5.72;74.77
21395;BME280;10858;42.714;23.180;2023-01-15T04:21:47;94781.16;;;5.69;74.53
21395;BME280;10858;42.714;23.180;2023-01-15T04:24:13;94779.13;;;5.18;75.57
21395;BME280;10858;42.714;23.180;2023-01-15T04:26:39;94782.03;;;5.13;75.76
21395;BME280;10858;42.714;23.180;2023-01-15T04:29:06;94782.88;;;5.14;74.77
21395;BME280;10858;42.714;23.180;2023-01-15T04:31:32;94782.03;;;5.13;75.33
21395;BME280;10858;42.714;23.180;2023-01-15T04:34:01;94778.53;;;5.27;74.12
21395;BME280;10858;42.714;23.180;2023-01-15T04:36:27;94775.28;;;5.24;73.55
21395;BME280;10858;42.714;23.180;2023-01-15T04:38:54;94767.84;;;5.30;74.73
21395;BME280;10858;42.714;23.180;2023-01-15T04:41:22;94776.22;;;5.23;74.39
21395;BME280;10858;42.714;23.180;2023-01-15T04:44:07;94770.50;;;5.16;74.84
21395;BME280;10858;42.714;23.180;2023-01-15T04:46:38;94783.00;;;5.27;74.45
21395;BME280;10858;42.714;23.180;2023-01-15T04:49:07;94788.78;;;5.46;73.46
21395;BME280;10858;42.714;23.180;2023-01-15T04:51:34;94789.34;;;5.65;72.39
21395;BME280;10858;42.714;23.180;2023-01-15T04:54:04;94781.78;;;6.01;71.53
21395;BME280;10858;42.714;23.180;2023-01-15T04:56:31;94780.91;;;6.15;70.58
21395;BME280;10858;42.714;23.180;2023-01-15T04:59:00;94785.19;;;6.16;70.07
21395;BME280;10858;42.714;23.180;2023-01-15T05:01:27;94788.19;;;5.97;70.12
21395;BME280;10858;42.714;23.180;2023-01-15T05:03:53;94790.09;;;5.67;71.20
21395;BME280;10858;42.714;23.180;2023-01-15T05:06:20;94783.38;;;5.21;72.21
21395;BME280;10858;42.714;23.180;2023-01-15T05:08:46;94787.03;;;5.32;72.50
21395;BME280;10858;42.714;23.180;2023-01-15T05:11:12;94782.00;;;4.85;73.58
21395;BME280;10858;42.714;23.180;2023-01-15T05:13:38;94776.47;;;4.76;73.02
21395;BME280;10858;42.714;23.180;2023-01-15T05:16:08;94782.13;;;4.54;73.87
21395;BME280;10858;42.714;23.180;2023-01-15T05:18:35;94781.34;;;4.38;74.52
21395;BME280;10858;42.714;23.180;2023-01-15T05:21:01;94790.56;;;4.59;73.43
21395;BME280;10858;42.714;23.180;2023-01-15T05:23:27;94782.91;;;4.56;72.80
21395;BME280;10858;42.714;23.180;2023-01-15T05:25:53;94788.00;;;4.14;74.15
21395;BME280;10858;42.714;23.180;2023-01-15T05:28:20;94789.25;;;4.22;73.32
21395;BME280;10858;42.714;23.180;2023-01-15T05:30:46;94793.00;;;4.18;72.65
21395;BME280;10858;42.714;23.180;2023-01-15T05:33:12;94797.13;;;4.07;72.16
21395;BME280;10858;42.714;23.180;2023-01-15T05:35:38;94794.88;;;3.70;73.22
21395;BME280;10858;42.714;23.180;2023-01-15T05:38:05;94792.50;;;3.50;74.06
21395;BME280;10858;42.714;23.180;2023-01-15T05:40:31;94800.03;;;3.40;74.71
21395;BME280;10858;42.714;23.180;2023-01-15T05:42:58;94798.94;;;3.28;75.05
21395;BME280;10858;42.714;23.180;2023-01-15T05:45:24;94800.84;;;3.25;75.39
21395;BME280;10858;42.714;23.180;2023-01-15T05:47:52;94811.91;;;3.14;75.53
21395;BME280;10858;42.714;23.180;2023-01-15T05:50:18;94800.34;;;3.18;75.46
21395;BME280;10858;42.714;23.180;2023-01-15T05:52:44;94801.88;;;3.22;75.42
21395;BME280;10858;42.714;23.180;2023-01-15T05:55:11;94808.97;;;3.20;75.38
21395;BME280;10858;42.714;23.180;2023-01-15T05:57:37;94801.88;;;3.22;75.36
21395;BME280;10858;42.714;23.180;2023-01-15T06:00:04;94809.13;;;3.17;75.51
21395;BME280;10858;42.714;23.180;2023-01-15T06:02:31;94815.75;;;3.24;75.95
21395;BME280;10858;42.714;23.180;2023-01-15T06:04:57;94822.63;;;3.42;75.82
21395;BME280;10858;42.714;23.180;2023-01-15T06:07:23;94819.00;;;3.61;75.86
21395;BME280;10858;42.714;23.180;2023-01-15T06:09:49;94819.50;;;3.67;75.89
21395;BME280;10858;42.714;23.180;2023-01-15T06:12:15;94805.03;;;3.76;75.95
21395;BME280;10858;42.714;23.180;2023-01-15T06:14:41;94814.00;;;3.87;75.97
21395;BME280;10858;42.714;23.180;2023-01-15T06:17:08;94814.09;;;3.86;76.24
21395;BME280;10858;42.714;23.180;2023-01-15T06:19:34;94807.50;;;3.79;76.06
21395;BME280;10858;42.714;23.180;2023-01-15T06:22:00;94808.00;;;3.70;76.49
21395;BME280;10858;42.714;23.180;2023-01-15T06:24:28;94800.31;;;3.82;76.30
21395;BME280;10858;42.714;23.180;2023-01-15T06:26:54;94798.53;;;3.83;76.51
21395;BME280;10858;42.714;23.180;2023-01-15T06:29:21;94795.31;;;3.78;76.95
21395;BME280;10858;42.714;23.180;2023-01-15T06:31:47;94805.09;;;4.05;76.79
21395;BME280;10858;42.714;23.180;2023-01-15T06:34:14;94803.91;;;4.11;76.84
21395;BME280;10858;42.714;23.180;2023-01-15T06:36:40;94809.66;;;4.17;76.04
21395;BME280;10858;42.714;23.180;2023-01-15T06:39:06;94809.47;;;4.36;76.21
21395;BME280;10858;42.714;23.180;2023-01-15T06:41:32;94807.00;;;4.33;75.79
21395;BME280;10858;42.714;23.180;2023-01-15T06:44:17;94810.28;;;4.52;76.17
21395;BME280;10858;42.714;23.180;2023-01-15T06:47:15;94811.91;;;4.39;76.72
21395;BME280;10858;42.714;23.180;2023-01-15T06:52:16;94802.13;;;5.00;75.76
21395;BME280;10858;42.714;23.180;2023-01-15T06:54:42;94797.03;;;4.97;75.72
21395;BME280;10858;42.714;23.180;2023-01-15T06:57:08;94797.91;;;5.12;75.40
21395;BME280;10858;42.714;23.180;2023-01-15T06:59:34;94802.69;;;5.05;74.66
21395;BME280;10858;42.714;23.180;2023-01-15T07:02:01;94799.03;;;5.22;74.92
21395;BME280;10858;42.714;23.180;2023-01-15T07:04:27;94800.28;;;5.31;74.24
21395;BME280;10858;42.714;23.180;2023-01-15T07:06:53;94801.94;;;5.60;73.55
21395;BME280;10858;42.714;23.180;2023-01-15T07:09:20;94803.63;;;5.89;72.88
21395;BME280;10858;42.714;23.180;2023-01-15T07:11:46;94811.03;;;5.82;71.91
21395;BME280;10858;42.714;23.180;2023-01-15T07:14:16;94804.78;;;5.43;72.80
21395;BME280;10858;42.714;23.180;2023-01-15T07:16:43;94807.59;;;5.40;72.74
21395;BME280;10858;42.714;23.180;2023-01-15T07:19:09;94815.66;;;5.65;72.58
21395;BME280;10858;42.714;23.180;2023-01-15T07:21:35;94817.59;;;5.75;71.96
21395;BME280;10858;42.714;23.180;2023-01-15T07:24:01;94812.00;;;5.53;72.04
21395;BME280;10858;42.714;23.180;2023-01-15T07:26:28;94810.38;;;5.79;72.24
21395;BME280;10858;42.714;23.180;2023-01-15T07:28:54;94809.53;;;6.33;71.49
21395;BME280;10858;42.714;23.180;2023-01-15T07:31:20;94809.31;;;6.63;70.60
21395;BME280;10858;42.714;23.180;2023-01-15T07:33:49;94816.81;;;6.81;69.00
21395;BME280;10858;42.714;23.180;2023-01-15T07:36:16;94826.13;;;7.00;68.03
21395;BME280;10858;42.714;23.180;2023-01-15T07:38:42;94818.97;;;7.52;66.57
21395;BME280;10858;42.714;23.180;2023-01-15T07:41:08;94820.81;;;8.25;63.68
21395;BME280;10858;42.714;23.180;2023-01-15T07:43:52;94815.28;;;8.28;60.58
21395;BME280;10858;42.714;23.180;2023-01-15T07:46:37;94810.22;;;8.73;57.30
21395;BME280;10858;42.714;23.180;2023-01-15T07:49:22;94806.34;;;9.46;56.93
21395;BME280;10858;42.714;23.180;2023-01-15T07:52:06;94810.66;;;10.47;54.83
21395;BME280;10858;42.714;23.180;2023-01-15T07:54:32;94800.06;;;11.51;50.48
21395;BME280;10858;42.714;23.180;2023-01-15T07:56:58;94797.56;;;12.01;48.37
21395;BME280;10858;42.714;23.180;2023-01-15T07:59:25;94807.06;;;11.11;50.23
21395;BME280;10858;42.714;23.180;2023-01-15T08:01:51;94804.78;;;10.43;50.57
21395;BME280;10858;42.714;23.180;2023-01-15T08:04:17;94803.72;;;10.01;52.36
21395;BME280;10858;42.714;23.180;2023-01-15T08:06:43;94805.31;;;10.26;52.96
21395;BME280;10858;42.714;23.180;2023-01-15T08:09:10;94804.59;;;10.24;53.41
21395;BME280;10858;42.714;23.180;2023-01-15T08:11:36;94798.66;;;10.20;52.09
21395;BME280;10858;42.714;23.180;2023-01-15T08:14:20;94803.94;;;9.98;52.80
21395;BME280;10858;42.714;23.180;2023-01-15T08:17:05;94808.41;;;9.87;53.30
21395;BME280;10858;42.714;23.180;2023-01-15T08:19:32;94810.22;;;10.08;53.06
21395;BME280;10858;42.714;23.180;2023-01-15T08:21:58;94809.25;;;10.32;52.10
21395;BME280;10858;42.714;23.180;2023-01-15T08:24:27;94810.69;;;10.36;52.40
21395;BME280;10858;42.714;23.180;2023-01-15T08:26:54;94815.50;;;10.84;49.97
21395;BME280;10858;42.714;23.180;2023-01-15T08:29:20;94812.66;;;10.11;52.04
21395;BME280;10858;42.714;23.180;2023-01-15T08:31:46;94808.75;;;11.33;50.14
21395;BME280;10858;42.714;23.180;2023-01-15T08:34:13;94810.50;;;11.64;48.46
21395;BME280;10858;42.714;23.180;2023-01-15T08:36:39;94808.00;;;11.42;49.14
21395;BME280;10858;42.714;23.180;2023-01-15T08:39:05;94813.63;;;10.75;49.49
21395;BME280;10858;42.714;23.180;2023-01-15T08:41:32;94812.72;;;10.43;50.48
21395;BME280;10858;42.714;23.180;2023-01-15T08:43:58;94803.34;;;10.82;50.32
21395;BME280;10858;42.714;23.180;2023-01-15T08:46:25;94808.53;;;10.72;50.66
21395;BME280;10858;42.714;23.180;2023-01-15T08:48:51;94807.00;;;10.70;50.49
21395;BME280;10858;42.714;23.180;2023-01-15T08:51:18;94803.78;;;10.44;52.03
21395;BME280;10858;42.714;23.180;2023-01-15T08:53:44;94803.97;;;10.20;52.01
21395;BME280;10858;42.714;23.180;2023-01-15T08:56:18;94800.47;;;9.98;52.50
21395;BME280;10858;42.714;23.180;2023-01-15T08:58:45;94802.97;;;9.44;53.22
21395;BME280;10858;42.714;23.180;2023-01-15T09:01:14;94803.69;;;9.35;54.57
21395;BME280;10858;42.714;23.180;2023-01-15T09:03:43;94809.97;;;9.56;54.55
21395;BME280;10858;42.714;23.180;2023-01-15T09:06:10;94803.94;;;9.54;54.10
21395;BME280;10858;42.714;23.180;2023-01-15T09:08:38;94807.22;;;9.12;54.23
21395;BME280;10858;42.714;23.180;2023-01-15T09:11:06;94804.06;;;8.96;55.68
21395;BME280;10858;42.714;23.180;2023-01-15T09:13:37;94799.31;;;9.23;54.73
21395;BME280;10858;42.714;23.180;2023-01-15T09:16:05;94798.03;;;9.51;54.61
21395;BME280;10858;42.714;23.180;2023-01-15T09:18:32;94792.16;;;9.58;54.48
21395;BME280;10858;42.714;23.180;2023-01-15T09:20:59;94789.84;;;9.42;54.83
21395;BME280;10858;42.714;23.180;2023-01-15T09:23:25;94798.59;;;9.32;55.10
21395;BME280;10858;42.714;23.180;2023-01-15T09:25:57;94793.34;;;9.54;55.02
21395;BME280;10858;42.714;23.180;2023-01-15T09:28:24;94786.28;;;9.66;54.58
21395;BME280;10858;42.714;23.180;2023-01-15T09:30:51;94787.31;;;9.52;54.74
21395;BME280;10858;42.714;23.180;2023-01-15T09:33:17;94783.84;;;9.52;54.68
21395;BME280;10858;42.714;23.180;2023-01-15T09:35:43;94780.34;;;9.62;54.68
21395;BME280;10858;42.714;23.180;2023-01-15T09:38:14;94772.50;;;9.38;54.28
21395;BME280;10858;42.714;23.180;2023-01-15T09:40:53;94774.22;;;9.51;53.80
21395;BME280;10858;42.714;23.180;2023-01-15T09:49:33;94747.59;;;9.52;53.86
21395;BME280;10858;42.714;23.180;2023-01-15T09:54:51;94751.09;;;9.86;53.02
21395;BME280;10858;42.714;23.180;2023-01-15T09:57:19;94749.41;;;9.85;52.54
21395;BME280;10858;42.714;23.180;2023-01-15T09:59:49;94740.38;;;9.54;53.21
21395;BME280;10858;42.714;23.180;2023-01-15T10:08:20;94720.53;;;9.60;54.62
21395;BME280;10858;42.714;23.180;2023-01-15T10:10:55;94711.75;;;9.59;53.85
21395;BME280;10858;42.714;23.180;2023-01-15T10:13:42;94712.44;;;9.50;54.30
21395;BME280;10858;42.714;23.180;2023-01-15T10:16:23;94699.47;;;9.25;54.66
21395;BME280;10858;42.714;23.180;2023-01-15T10:18:51;94699.59;;;9.68;54.24
21395;BME280;10858;42.714;23.180;2023-01-15T10:24:17;94691.69;;;9.99;53.07
21395;BME280;10858;42.714;23.180;2023-01-15T10:26:55;94687.09;;;10.12;53.61
21395;BME280;10858;42.714;23.180;2023-01-15T10:37:56;94671.41;;;10.20;52.34
21395;BME280;10858;42.714;23.180;2023-01-15T10:46:06;94646.13;;;10.69;51.23
21395;BME280;10858;42.714;23.180;2023-01-15T10:48:39;94634.78;;;10.67;50.75
21395;BME280;10858;42.714;23.180;2023-01-15T10:54:06;94633.03;;;10.77;51.61
21395;BME280;10858;42.714;23.180;2023-01-15T10:56:59;94625.88;;;10.47;50.56
21395;BME280;10858;42.714;23.180;2023-01-15T10:59:35;94626.13;;;9.70;53.31
21395;BME280;10858;42.714;23.180;2023-01-15T11:04:52;94627.75;;;9.28;55.79
21395;BME280;10858;42.714;23.180;2023-01-15T11:07:21;94626.28;;;9.46;55.06
21395;BME280;10858;42.714;23.180;2023-01-15T11:09:48;94624.56;;;9.67;54.94
21395;BME280;10858;42.714;23.180;2023-01-15T11:12:26;94616.03;;;9.53;53.60
21395;BME280;10858;42.714;23.180;2023-01-15T11:14:53;94610.66;;;9.43;55.47
21395;BME280;10858;42.714;23.180;2023-01-15T11:17:46;94609.31;;;9.49;54.45
21395;BME280;10858;42.714;23.180;2023-01-15T11:20:43;94610.78;;;9.08;55.82
21395;BME280;10858;42.714;23.180;2023-01-15T11:23:13;94605.16;;;8.91;56.69
21395;BME280;10858;42.714;23.180;2023-01-15T11:25:57;94602.25;;;9.16;55.28
21395;BME280;10858;42.714;23.180;2023-01-15T11:28:51;94599.81;;;9.24;55.55
21395;BME280;10858;42.714;23.180;2023-01-15T11:31:17;94599.72;;;9.25;55.81
21395;BME280;10858;42.714;23.180;2023-01-15T11:33:54;94592.88;;;9.12;56.22
21395;BME280;10858;42.714;23.180;2023-01-15T11:36:24;94593.56;;;9.36;56.00
21395;BME280;10858;42.714;23.180;2023-01-15T11:38:52;94590.09;;;9.24;56.30
21395;BME280;10858;42.714;23.180;2023-01-15T11:43:56;94578.19;;;9.08;56.95
21395;BME280;10858;42.714;23.180;2023-01-15T11:46:44;94576.41;;;9.19;56.63
21395;BME280;10858;42.714;23.180;2023-01-15T11:49:29;94571.66;;;9.34;55.56
21395;BME280;10858;42.714;23.180;2023-01-15T11:52:21;94557.25;;;9.27;56.33
21395;BME280;10858;42.714;23.180;2023-01-15T11:54:52;94566.13;;;9.37;56.77
21395;BME280;10858;42.714;23.180;2023-01-15T11:57:29;94570.22;;;9.41;56.50
21395;BME280;10858;42.714;23.180;2023-01-15T11:59:56;94560.91;;;9.89;55.75
21395;BME280;10858;42.714;23.180;2023-01-15T12:02:38;94556.72;;;9.87;53.87
21395;BME280;10858;42.714;23.180;2023-01-15T12:05:19;94563.16;;;9.73;54.49
21395;BME280;10858;42.714;23.180;2023-01-15T12:07:48;94551.88;;;9.92;55.74
21395;BME280;10858;42.714;23.180;2023-01-15T12:10:19;94543.72;;;9.84;55.00
21395;BME280;10858;42.714;23.180;2023-01-15T12:16:22;94540.63;;;9.99;54.90
21395;BME280;10858;42.714;23.180;2023-01-15T12:21:58;94533.13;;;9.84;55.59
21395;BME280;10858;42.714;23.180;2023-01-15T12:35:47;94533.69;;;9.13;56.46
21395;BME280;10858;42.714;23.180;2023-01-15T12:41:15;94530.84;;;8.94;58.10
21395;BME280;10858;42.714;23.180;2023-01-15T12:43:49;94522.78;;;9.38;57.15
21395;BME280;10858;42.714;23.180;2023-01-15T12:46:38;94513.16;;;10.00;56.04
21395;BME280;10858;42.714;23.180;2023-01-15T12:49:13;94511.13;;;10.24;53.87
21395;BME280;10858;42.714;23.180;2023-01-15T12:52:16;94508.69;;;11.42;51.74
21395;BME280;10858;42.714;23.180;2023-01-15T12:55:12;94511.25;;;12.11;48.97
21395;BME280;10858;42.714;23.180;2023-01-15T12:57:46;94509.09;;;12.43;48.08
21395;BME280;10858;42.714;23.180;2023-01-15T13:00:18;94501.44;;;12.30;48.06
21395;BME280;10858;42.714;23.180;2023-01-15T13:05:30;94493.41;;;12.96;46.47
21395;BME280;10858;42.714;23.180;2023-01-15T13:10:57;94489.13;;;13.03;46.37
21395;BME280;10858;42.714;23.180;2023-01-15T13:13:24;94489.50;;;12.90;46.25
21395;BME280;10858;42.714;23.180;2023-01-15T13:16:02;94493.88;;;12.81;46.67
21395;BME280;10858;42.714;23.180;2023-01-15T13:18:45;94483.25;;;11.68;49.32
21395;BME280;10858;42.714;23.180;2023-01-15T13:21:18;94479.28;;;11.25;50.74
21395;BME280;10858;42.714;23.180;2023-01-15T13:29:33;94474.72;;;10.26;54.26
21395;BME280;10858;42.714;23.180;2023-01-15T13:37:27;94468.41;;;9.34;57.29
21395;BME280;10858;42.714;23.180;2023-01-15T13:40:01;94468.59;;;9.53;56.48
21395;BME280;10858;42.714;23.180;2023-01-15T13:42:30;94468.19;;;9.89;56.35
21395;BME280;10858;42.714;23.180;2023-01-15T13:45:04;94469.34;;;9.76;56.34
21395;BME280;10858;42.714;23.180;2023-01-15T13:47:34;94466.63;;;9.87;56.11
21395;BME280;10858;42.714;23.180;2023-01-15T13:50:17;94460.16;;;9.59;56.91
21395;BME280;10858;42.714;23.180;2023-01-15T13:52:45;94464.31;;;9.41;57.56
21395;BME280;10858;42.714;23.180;2023-01-15T13:55:27;94470.09;;;9.03;58.51
21395;BME280;10858;42.714;23.180;2023-01-15T13:57:55;94459.41;;;8.94;59.03
21395;BME280;10858;42.714;23.180;2023-01-15T14:00:31;94457.75;;;9.24;58.89
21395;BME280;10858;42.714;23.180;2023-01-15T14:03:02;94463.47;;;9.40;57.77
21395;BME280;10858;42.714;23.180;2023-01-15T14:05:54;94456.84;;;9.67;57.29
21395;BME280;10858;42.714;23.180;2023-01-15T14:08:25;94462.50;;;9.94;55.99
21395;BME280;10858;42.714;23.180;2023-01-15T14:10:53;94458.41;;;9.69;56.81
21395;BME280;10858;42.714;23.180;2023-01-15T14:13:42;94464.06;;;9.76;56.43
21395;BME280;10858;42.714;23.180;2023-01-15T14:18:56;94462.03;;;9.05;58.42
21395;BME280;10858;42.714;23.180;2023-01-15T14:21:38;94470.69;;;9.07;57.93
21395;BME280;10858;42.714;23.180;2023-01-15T14:32:41;94471.59;;;8.41;60.05
21395;BME280;10858;42.714;23.180;2023-01-15T14:35:13;94466.53;;;8.38;60.36
21395;BME280;10858;42.714;23.180;2023-01-15T14:37:59;94465.69;;;8.15;61.12
21395;BME280;10858;42.714;23.180;2023-01-15T14:40:31;94461.44;;;7.91;62.19
21395;BME280;10858;42.714;23.180;2023-01-15T14:43:05;94459.66;;;7.91;62.21
21395;BME280;10858;42.714;23.180;2023-01-15T14:45:39;94459.13;;;7.86;62.37
21395;BME280;10858;42.714;23.180;2023-01-15T14:51:09;94458.81;;;7.56;63.48
21395;BME280;10858;42.714;23.180;2023-01-15T14:56:52;94458.56;;;7.48;63.72
21395;BME280;10858;42.714;23.180;2023-01-15T14:59:24;94459.00;;;7.31;64.36
21395;BME280;10858;42.714;23.180;2023-01-15T15:01:59;94464.72;;;7.25;65.07
21395;BME280;10858;42.714;23.180;2023-01-15T15:04:41;94462.41;;;7.20;65.15
21395;BME280;10858;42.714;23.180;2023-01-15T15:07:19;94461.66;;;7.07;65.66
21395;BME280;10858;42.714;23.180;2023-01-15T15:09:49;94465.84;;;6.86;65.93
21395;BME280;10858;42.714;23.180;2023-01-15T15:12:24;94466.31;;;6.67;66.63